createdAt,value
2018-09-03T00:00:26.186Z,63.20
2018-09-03T00:02:54.300Z,63.40
2018-09-03T00:05:22.430Z,63.70
2018-09-03T00:07:50.576Z,63.90
2018-09-03T00:10:18.711Z,64.10
2018-09-03T00:12:46.827Z,64.40
2018-09-03T00:15:15.052Z,64.70
2018-09-03T00:17:43.270Z,64.90
2018-09-03T00:20:11.406Z,65.10
2018-09-03T00:22:39.539Z,65.30
2018-09-03T00:25:08.061Z,65.30
2018-09-03T00:27:36.196Z,65.20
2018-09-03T00:30:04.334Z,65.20
2018-09-03T00:32:38.132Z,65.70
2018-09-03T00:35:12.596Z,66.00
2018-09-03T00:37:46.427Z,66.10
2018-09-03T00:40:19.810Z,66.40
2018-09-03T00:42:53.551Z,66.40
2018-09-03T00:45:27.005Z,66.30
2018-09-03T00:47:55.118Z,66.50
2018-09-03T00:50:23.238Z,67.20
2018-09-03T00:52:51.374Z,66.60
2018-09-03T00:55:19.583Z,66.90
2018-09-03T00:57:47.722Z,66.60
2018-09-03T01:00:15.931Z,66.50
2018-09-03T01:02:44.030Z,66.40
2018-09-03T01:05:12.143Z,66.40
2018-09-03T01:07:40.265Z,66.50
2018-09-03T01:10:08.394Z,66.30
2018-09-03T01:12:36.534Z,66.40
2018-09-03T01:15:04.671Z,66.30
2018-09-03T01:17:32.794Z,66.50
2018-09-03T01:20:01.002Z,66.70
2018-09-03T01:22:29.134Z,67.10
2018-09-03T01:24:57.259Z,67.50
2018-09-03T01:27:25.376Z,68.00
2018-09-03T01:29:53.565Z,68.40
2018-09-03T01:32:21.694Z,68.80
2018-09-03T01:34:49.809Z,69.00
2018-09-03T01:37:17.953Z,69.30
2018-09-03T01:39:46.091Z,69.50
2018-09-03T01:42:14.230Z,69.90
2018-09-03T01:44:42.385Z,70.40
2018-09-03T01:47:10.534Z,70.60
2018-09-03T01:49:38.665Z,71.00
2018-09-03T01:52:06.806Z,71.80
2018-09-03T01:54:34.934Z,71.40
2018-09-03T01:57:03.077Z,71.20
2018-09-03T01:59:31.821Z,71.20
2018-09-03T02:01:59.944Z,71.10
2018-09-03T02:04:28.619Z,71.20
2018-09-03T02:06:56.760Z,71.30
2018-09-03T02:09:24.885Z,71.60
2018-09-03T02:11:53.018Z,71.90
2018-09-03T02:14:21.154Z,72.20
2018-09-03T02:16:49.286Z,72.50
2018-09-03T02:19:17.435Z,72.60
2018-09-03T02:21:45.573Z,72.90
2018-09-03T02:24:13.689Z,73.10
2018-09-03T02:26:43.146Z,73.20
2018-09-03T02:29:11.460Z,73.30
2018-09-03T02:31:39.557Z,73.70
2018-09-03T02:34:07.711Z,74.00
2018-09-03T02:36:35.826Z,74.10
2018-09-03T02:39:06.973Z,74.30
2018-09-03T02:41:35.106Z,74.40
2018-09-03T02:44:03.218Z,74.40
2018-09-03T02:46:31.365Z,74.60
2018-09-03T02:48:59.512Z,74.70
2018-09-03T02:51:27.634Z,74.90
2018-09-03T02:53:55.772Z,75.20
2018-09-03T02:56:23.889Z,75.30
2018-09-03T02:58:52.034Z,75.40
2018-09-03T03:01:20.156Z,75.80
2018-09-03T03:03:48.302Z,75.80
2018-09-03T03:06:16.420Z,76.00
2018-09-03T03:08:44.542Z,75.80
2018-09-03T03:11:12.675Z,75.80
2018-09-03T03:13:40.817Z,76.10
2018-09-03T03:16:08.932Z,75.90
2018-09-03T03:18:37.045Z,76.10
2018-09-03T03:21:05.461Z,76.20
2018-09-03T03:23:33.815Z,76.60
2018-09-03T03:26:01.954Z,76.50
2018-09-03T03:28:30.103Z,76.30
2018-09-03T03:30:58.228Z,76.40
2018-09-03T03:33:26.351Z,76.50
2018-09-03T03:35:54.525Z,76.70
2018-09-03T03:38:22.665Z,76.50
2018-09-03T03:40:50.797Z,76.40
2018-09-03T03:43:18.918Z,76.70
2018-09-03T03:45:47.056Z,76.70
2018-09-03T03:48:15.168Z,76.70
2018-09-03T03:50:43.309Z,76.90
2018-09-03T03:53:11.433Z,77.10
2018-09-03T03:55:39.561Z,77.10
2018-09-03T03:58:07.697Z,77.20
2018-09-03T04:00:35.821Z,77.10
2018-09-03T04:03:03.954Z,77.30
2018-09-03T04:05:32.122Z,77.00
2018-09-03T04:08:00.234Z,77.10
2018-09-03T04:10:28.394Z,77.20
2018-09-03T04:13:03.873Z,77.40
2018-09-03T04:15:32.009Z,77.60
2018-09-03T04:18:00.358Z,77.50
2018-09-03T04:20:28.485Z,77.70
2018-09-03T04:22:56.673Z,77.90
2018-09-03T04:25:24.747Z,77.50
2018-09-03T04:27:53.278Z,77.00
2018-09-03T04:30:21.426Z,76.80
2018-09-03T04:32:49.578Z,77.10
2018-09-03T04:35:17.726Z,77.10
2018-09-03T04:37:45.850Z,77.20
2018-09-03T04:40:14.239Z,77.00
2018-09-03T04:42:42.371Z,77.10
2018-09-03T04:45:10.492Z,77.20
2018-09-03T04:47:38.954Z,77.50
2018-09-03T04:50:07.325Z,77.90
2018-09-03T04:52:35.436Z,78.70
2018-09-03T04:55:03.572Z,77.80
2018-09-03T04:57:31.687Z,77.80
2018-09-03T04:59:59.821Z,77.80
2018-09-03T05:02:27.957Z,77.90
2018-09-03T05:04:56.165Z,78.00
2018-09-03T05:07:24.306Z,78.10
2018-09-03T05:09:52.618Z,78.10
2018-09-03T05:12:20.761Z,78.10
2018-09-03T05:14:48.887Z,78.00
2018-09-03T05:17:17.043Z,77.80
2018-09-03T05:19:45.166Z,78.60
2018-09-03T05:22:13.303Z,77.80
2018-09-03T05:24:41.430Z,77.70
2018-09-03T05:27:09.576Z,78.40
2018-09-03T05:29:37.690Z,77.50
2018-09-03T05:32:05.830Z,77.50
2018-09-03T05:34:33.957Z,77.50
2018-09-03T05:37:02.094Z,77.30
2018-09-03T05:39:30.206Z,77.40
2018-09-03T05:41:58.330Z,77.10
2018-09-03T05:44:26.472Z,76.60
2018-09-03T05:46:54.623Z,76.50
2018-09-03T05:49:22.730Z,76.50
2018-09-03T05:51:50.878Z,76.40
2018-09-03T05:54:19.001Z,76.40
2018-09-03T05:56:47.150Z,76.40
2018-09-03T05:59:15.347Z,76.20
2018-09-03T06:01:43.409Z,76.30
2018-09-03T06:04:11.546Z,76.40
2018-09-03T06:06:39.702Z,76.40
2018-09-03T06:09:09.694Z,76.50
2018-09-03T06:11:37.818Z,76.70
2018-09-03T06:14:05.972Z,76.90
2018-09-03T06:16:34.110Z,76.70
2018-09-03T06:19:02.279Z,76.60
2018-09-03T06:21:30.413Z,76.00
2018-09-03T06:23:58.583Z,75.90
2018-09-03T06:26:27.065Z,75.50
2018-09-03T06:28:55.159Z,75.00
2018-09-03T06:31:23.298Z,74.90
2018-09-03T06:33:51.431Z,74.10
2018-09-03T06:36:19.586Z,73.80
2018-09-03T06:38:47.718Z,73.90
2018-09-03T06:41:15.827Z,73.70
2018-09-03T06:43:43.956Z,73.10
2018-09-03T06:46:12.065Z,73.10
2018-09-03T06:48:40.183Z,72.50
2018-09-03T06:51:08.314Z,72.70
2018-09-03T06:53:36.485Z,72.20
2018-09-03T06:56:04.567Z,72.50
2018-09-03T06:58:32.744Z,72.50
2018-09-03T07:01:00.871Z,71.40
2018-09-03T07:03:28.988Z,71.20
2018-09-03T07:05:57.108Z,71.00
2018-09-03T07:08:25.238Z,71.20
2018-09-03T07:10:53.350Z,70.40
2018-09-03T07:13:21.490Z,70.20
2018-09-03T07:15:49.609Z,70.00
2018-09-03T07:18:17.737Z,69.70
2018-09-03T07:20:45.856Z,69.70
2018-09-03T07:23:13.985Z,69.30
2018-09-03T07:25:42.142Z,69.60
2018-09-03T07:28:10.281Z,69.90
2018-09-03T07:30:38.417Z,70.20
2018-09-03T07:33:06.550Z,69.60
2018-09-03T07:35:34.748Z,69.50
2018-09-03T07:38:02.927Z,68.90
2018-09-03T07:40:31.045Z,69.30
2018-09-03T07:42:59.181Z,68.90
2018-09-03T07:45:27.338Z,68.90
2018-09-03T07:47:55.470Z,68.80
2018-09-03T07:50:23.610Z,68.40
2018-09-03T07:52:51.750Z,68.70
2018-09-03T07:55:19.878Z,68.70
2018-09-03T07:57:48.019Z,68.70
2018-09-03T08:00:16.161Z,68.50
2018-09-03T08:02:44.277Z,68.40
2018-09-03T08:05:12.434Z,68.20
2018-09-03T08:07:40.550Z,68.30
2018-09-03T08:10:09.550Z,68.20
2018-09-03T08:12:37.910Z,67.90
2018-09-03T08:15:06.319Z,67.80
2018-09-03T08:17:34.459Z,67.30
2018-09-03T08:20:02.595Z,67.10
2018-09-03T08:22:30.718Z,67.00
2018-09-03T08:24:58.849Z,66.40
2018-09-03T08:27:26.993Z,66.10
2018-09-03T08:29:55.132Z,66.30
2018-09-03T08:32:23.260Z,65.90
2018-09-03T08:34:51.400Z,65.90
2018-09-03T08:37:19.570Z,65.70
2018-09-03T08:39:47.717Z,65.90
2018-09-03T08:42:15.824Z,65.90
2018-09-03T08:44:43.983Z,65.70
2018-09-03T08:47:12.113Z,65.20
2018-09-03T08:49:40.243Z,64.80
2018-09-03T08:52:08.487Z,65.30
2018-09-03T08:54:36.593Z,64.60
2018-09-03T08:57:04.715Z,64.20
2018-09-03T08:59:32.978Z,64.20
2018-09-03T09:02:01.106Z,63.80
2018-09-03T09:04:29.234Z,63.50
2018-09-03T09:06:58.387Z,63.70
2018-09-03T09:09:26.508Z,63.70
2018-09-03T09:11:54.632Z,63.90
2018-09-03T09:14:22.759Z,64.40
2018-09-03T09:16:50.926Z,64.70
2018-09-03T09:19:19.054Z,64.80
2018-09-03T09:21:47.200Z,65.10
2018-09-03T09:24:15.338Z,65.20
2018-09-03T09:26:43.477Z,64.70
2018-09-03T09:29:11.616Z,64.80
2018-09-03T09:31:39.749Z,64.20
2018-09-03T09:34:07.886Z,63.90
2018-09-03T09:36:36.030Z,63.20
2018-09-03T09:39:06.077Z,62.70
2018-09-03T09:41:34.217Z,62.10
2018-09-03T09:44:03.370Z,62.30
2018-09-03T09:46:31.561Z,61.70
2018-09-03T09:48:59.697Z,61.50
2018-09-03T09:51:28.001Z,61.20
2018-09-03T09:53:56.134Z,60.70
2018-09-03T09:56:24.296Z,60.10
2018-09-03T09:58:52.434Z,60.50
2018-09-03T10:01:26.146Z,59.70
2018-09-03T10:03:54.285Z,59.20
2018-09-03T10:06:22.442Z,58.60
2018-09-03T10:08:50.566Z,59.30
2018-09-03T10:11:18.710Z,59.80
2018-09-03T10:13:46.834Z,59.80
2018-09-03T10:16:14.957Z,60.70
2018-09-03T10:18:43.118Z,59.70
2018-09-03T10:21:11.265Z,60.20
2018-09-03T10:23:39.453Z,60.50
2018-09-03T10:26:07.692Z,59.90
2018-09-03T10:28:35.818Z,59.60
2018-09-03T10:31:03.963Z,59.50
2018-09-03T10:33:32.110Z,59.10
2018-09-03T10:36:00.281Z,59.30
2018-09-03T10:38:28.427Z,58.70
2018-09-03T10:40:56.595Z,59.00
2018-09-03T10:43:24.743Z,59.10
2018-09-03T10:45:52.902Z,59.40
2018-09-03T10:48:21.054Z,59.30
2018-09-03T10:50:49.248Z,59.40
2018-09-03T10:53:17.403Z,59.10
2018-09-03T10:55:45.598Z,59.10
2018-09-03T10:58:13.783Z,59.00
2018-09-03T11:00:42.034Z,58.60
2018-09-03T11:03:10.228Z,58.70
2018-09-03T11:05:38.404Z,58.90
2018-09-03T11:08:06.577Z,58.90
2018-09-03T11:10:34.759Z,58.40
2018-09-03T11:13:02.976Z,58.50
2018-09-03T11:15:31.106Z,58.50
2018-09-03T11:17:59.258Z,58.50
2018-09-03T11:20:28.605Z,58.80
2018-09-03T11:22:57.219Z,58.60
2018-09-03T11:25:26.478Z,58.50
2018-09-03T11:27:55.165Z,58.10
2018-09-03T11:30:23.752Z,57.60
2018-09-03T11:32:56.525Z,58.00
2018-09-03T11:35:25.109Z,58.00
2018-09-03T11:37:53.262Z,57.60
2018-09-03T11:40:22.187Z,57.00
2018-09-03T11:42:50.510Z,56.90
2018-09-03T11:45:19.556Z,57.10
2018-09-03T11:47:48.031Z,56.80
2018-09-03T11:50:16.944Z,57.50
2018-09-03T11:52:45.122Z,56.40
2018-09-03T11:55:13.477Z,55.70
2018-09-03T11:57:42.345Z,54.80
2018-09-03T12:00:12.956Z,55.40
2018-09-03T12:02:41.090Z,55.70
2018-09-03T12:05:09.861Z,56.20
2018-09-03T12:07:38.034Z,55.90
2018-09-03T12:10:06.731Z,55.90
2018-09-03T12:12:34.905Z,55.70
2018-09-03T12:15:07.177Z,55.60
2018-09-03T12:17:35.370Z,55.30
2018-09-03T12:20:03.530Z,55.20
2018-09-03T12:22:31.670Z,55.10
2018-09-03T12:24:59.830Z,54.40
2018-09-03T12:27:28.037Z,54.70
2018-09-03T12:29:56.154Z,55.00
2018-09-03T12:32:24.322Z,55.30
2018-09-03T12:34:52.467Z,55.10
2018-09-03T12:37:20.618Z,54.90
2018-09-03T12:39:48.770Z,55.00
2018-09-03T12:42:16.922Z,55.70
2018-09-03T12:44:45.062Z,54.90
2018-09-03T12:47:13.211Z,55.10
2018-09-03T12:49:41.402Z,55.50
2018-09-03T12:52:09.538Z,55.90
2018-09-03T12:54:37.686Z,56.00
2018-09-03T12:57:06.064Z,56.90
2018-09-03T12:59:34.190Z,57.30
2018-09-03T13:02:02.361Z,56.90
2018-09-03T13:04:30.541Z,56.50
2018-09-03T13:06:58.653Z,56.50
2018-09-03T13:09:26.806Z,55.90
2018-09-03T13:11:54.986Z,56.00
2018-09-03T13:14:23.182Z,55.10
2018-09-03T13:16:51.330Z,55.20
2018-09-03T13:19:19.505Z,56.30
2018-09-03T13:21:47.670Z,56.10
2018-09-03T13:24:15.860Z,56.30
2018-09-03T13:26:44.025Z,56.70
2018-09-03T13:29:12.223Z,56.90
2018-09-03T13:31:40.418Z,56.40
2018-09-03T13:34:08.603Z,56.50
2018-09-03T13:36:36.781Z,56.70
2018-09-03T13:39:07.578Z,56.70
2018-09-03T13:41:35.809Z,56.00
2018-09-03T13:44:03.882Z,56.00
2018-09-03T13:46:32.042Z,56.00
2018-09-03T13:49:00.224Z,56.70
2018-09-03T13:51:28.395Z,56.90
2018-09-03T13:53:56.550Z,57.70
2018-09-03T13:56:24.795Z,57.90
2018-09-03T13:58:52.931Z,57.80
2018-09-03T14:01:21.099Z,57.80
2018-09-03T14:03:49.223Z,58.10
2018-09-03T14:06:17.434Z,58.10
2018-09-03T14:08:45.626Z,58.30
2018-09-03T14:11:13.786Z,58.40
2018-09-03T14:13:43.071Z,58.50
2018-09-03T14:16:11.240Z,58.50
2018-09-03T14:18:39.458Z,58.70
2018-09-03T14:21:07.619Z,58.70
2018-09-03T14:23:35.876Z,58.80
2018-09-03T14:26:04.054Z,58.80
2018-09-03T14:28:32.239Z,59.20
2018-09-03T14:31:00.398Z,59.50
2018-09-03T14:33:28.578Z,59.30
2018-09-03T14:35:56.765Z,59.20
2018-09-03T14:38:24.925Z,59.30
2018-09-03T14:40:53.147Z,59.10
2018-09-03T14:43:21.539Z,59.20
2018-09-03T14:45:49.718Z,59.50
2018-09-03T14:48:17.867Z,59.80
2018-09-03T14:50:46.018Z,59.90
2018-09-03T14:53:14.947Z,60.00
2018-09-03T14:55:43.178Z,60.10
2018-09-03T14:58:11.386Z,60.50
2018-09-03T15:00:39.605Z,60.80
2018-09-03T15:03:07.779Z,60.70
2018-09-03T15:05:35.926Z,60.50
2018-09-03T15:08:04.125Z,60.30
2018-09-03T15:10:32.277Z,60.10
2018-09-03T15:13:00.426Z,60.10
2018-09-03T15:15:28.570Z,60.40
2018-09-03T15:17:56.736Z,60.80
2018-09-03T15:20:24.905Z,60.90
2018-09-03T15:22:53.060Z,61.10
2018-09-03T15:25:21.433Z,60.90
2018-09-03T15:27:49.591Z,60.70
2018-09-03T15:30:17.851Z,60.80
2018-09-03T15:32:46.046Z,61.00
2018-09-03T15:35:14.426Z,60.90
2018-09-03T15:37:42.599Z,60.60
2018-09-03T15:40:10.770Z,60.80
2018-09-03T15:42:38.915Z,61.00
2018-09-03T15:45:07.442Z,61.00
2018-09-03T15:47:35.818Z,61.20
2018-09-03T15:50:03.970Z,61.60
2018-09-03T15:52:32.132Z,61.40
2018-09-03T15:55:00.307Z,60.60
2018-09-03T15:57:28.527Z,61.40
2018-09-03T15:59:56.689Z,61.70
2018-09-03T16:02:24.859Z,61.90
2018-09-03T16:04:53.964Z,61.90
2018-09-03T16:07:22.263Z,61.50
2018-09-03T16:09:50.659Z,62.00
2018-09-03T16:12:18.848Z,62.20
2018-09-03T16:14:47.042Z,62.50
2018-09-03T16:17:24.743Z,62.60
2018-09-03T16:19:52.886Z,62.90
2018-09-03T16:22:21.974Z,63.10
2018-09-03T16:24:50.118Z,63.40
2018-09-03T16:27:18.330Z,63.60
2018-09-03T16:29:46.466Z,64.10
2018-09-03T16:32:14.639Z,64.50
2018-09-03T16:34:42.759Z,65.10
2018-09-03T16:37:10.901Z,66.20
2018-09-03T16:39:39.039Z,66.60
2018-09-03T16:42:07.322Z,66.80
2018-09-03T16:44:35.366Z,67.20
2018-09-03T16:47:03.495Z,67.60
2018-09-03T16:49:31.713Z,68.00
2018-09-03T16:51:59.858Z,68.20
2018-09-03T16:54:28.072Z,68.70
2018-09-03T16:56:56.230Z,68.70
2018-09-03T16:59:24.400Z,68.70
2018-09-03T17:01:52.566Z,68.70
2018-09-03T17:04:20.715Z,68.70
2018-09-03T17:06:48.858Z,68.80
2018-09-03T17:09:17.002Z,68.80
2018-09-03T17:11:45.181Z,68.80
2018-09-03T17:14:13.338Z,68.60
2018-09-03T17:16:41.500Z,68.80
2018-09-03T17:19:09.666Z,68.70
2018-09-03T17:21:43.171Z,68.70
2018-09-03T17:24:11.398Z,69.00
2018-09-03T17:26:39.526Z,69.10
2018-09-03T17:29:07.678Z,69.20
2018-09-03T17:31:35.836Z,69.30
2018-09-03T17:34:03.980Z,69.90
2018-09-03T17:36:32.097Z,70.40
2018-09-03T17:39:00.225Z,70.90
2018-09-03T17:41:28.358Z,71.50
2018-09-03T17:43:56.504Z,72.30
2018-09-03T17:46:24.706Z,73.00
2018-09-03T17:48:52.857Z,73.60
2018-09-03T17:51:21.096Z,74.00
2018-09-03T17:53:49.225Z,74.40
2018-09-03T17:56:17.395Z,75.50
2018-09-03T17:58:45.610Z,74.60
2018-09-03T18:01:13.767Z,74.90
2018-09-03T18:03:42.006Z,75.10
2018-09-03T18:06:10.136Z,75.10
2018-09-03T18:08:38.283Z,75.20
2018-09-03T18:11:06.423Z,75.60
2018-09-03T18:13:34.568Z,75.70
2018-09-03T18:16:02.721Z,75.80
2018-09-03T18:18:30.873Z,76.30
2018-09-03T18:20:59.059Z,77.00
2018-09-03T18:23:27.198Z,77.10
2018-09-03T18:25:55.454Z,77.40
2018-09-03T18:28:23.624Z,77.50
2018-09-03T18:30:51.759Z,77.60
2018-09-03T18:33:19.905Z,77.60
2018-09-03T18:35:48.213Z,77.90
2018-09-03T18:38:16.323Z,78.10
2018-09-03T18:40:44.462Z,78.30
2018-09-03T18:43:12.646Z,78.70
2018-09-03T18:45:40.802Z,79.10
2018-09-03T18:48:08.937Z,79.30
2018-09-03T18:50:37.134Z,79.50
2018-09-03T18:53:05.266Z,79.70
2018-09-03T18:55:33.397Z,79.90
2018-09-03T18:58:02.521Z,80.00
2018-09-03T19:00:30.651Z,79.90
2018-09-03T19:02:58.805Z,79.90
2018-09-03T19:05:26.926Z,80.20
2018-09-03T19:07:55.045Z,80.20
2018-09-03T19:10:23.210Z,80.30
2018-09-03T19:12:51.416Z,80.10
2018-09-03T19:15:19.573Z,80.00
2018-09-03T19:17:47.706Z,80.20
2018-09-03T19:20:15.926Z,80.40
2018-09-03T19:22:44.086Z,80.30
2018-09-03T19:25:12.218Z,80.40
2018-09-03T19:27:40.347Z,80.50
2018-09-03T19:30:08.510Z,80.60
2018-09-03T19:32:36.633Z,80.70
2018-09-03T19:35:04.810Z,81.00
2018-09-03T19:37:32.943Z,81.20
2018-09-03T19:40:01.077Z,81.50
2018-09-03T19:42:29.201Z,81.70
2018-09-03T19:44:57.353Z,81.80
2018-09-03T19:47:25.481Z,82.00
2018-09-03T19:49:53.675Z,82.30
2018-09-03T19:52:21.805Z,82.40
2018-09-03T19:54:49.939Z,82.50
2018-09-03T19:57:18.078Z,82.60
2018-09-03T19:59:46.226Z,82.90
2018-09-03T20:02:14.392Z,82.90
2018-09-03T20:04:42.566Z,83.00
2018-09-03T20:07:10.826Z,83.00
2018-09-03T20:09:38.954Z,84.40
2018-09-03T20:12:07.087Z,83.70
2018-09-03T20:14:35.217Z,83.70
2018-09-03T20:17:03.454Z,83.90
2018-09-03T20:19:31.578Z,83.80
2018-09-03T20:21:59.703Z,84.10
2018-09-03T20:24:27.846Z,84.20
2018-09-03T20:26:55.974Z,84.40
2018-09-03T20:29:24.102Z,84.60
2018-09-03T20:31:52.250Z,85.00
2018-09-03T20:34:20.370Z,85.50
2018-09-03T20:36:48.501Z,85.80
2018-09-03T20:39:16.649Z,86.00
2018-09-03T20:41:44.778Z,86.00
2018-09-03T20:44:12.918Z,86.40
2018-09-03T20:46:41.053Z,86.70
2018-09-03T20:49:09.228Z,86.90
2018-09-03T20:51:37.409Z,87.00
2018-09-03T20:54:05.541Z,87.00
2018-09-03T20:56:33.719Z,87.10
2018-09-03T20:59:01.951Z,87.00
2018-09-03T21:01:30.161Z,87.20
2018-09-03T21:03:58.231Z,87.20
2018-09-03T21:06:26.358Z,87.30
2018-09-03T21:08:54.485Z,87.40
2018-09-03T21:11:22.617Z,87.40
2018-09-03T21:13:50.743Z,87.50
2018-09-03T21:16:18.878Z,87.60
2018-09-03T21:18:47.009Z,87.50
2018-09-03T21:21:15.144Z,87.80
2018-09-03T21:23:43.361Z,87.80
2018-09-03T21:26:11.482Z,87.80
2018-09-03T21:28:39.665Z,87.80
2018-09-03T21:31:07.769Z,88.00
2018-09-03T21:33:35.903Z,88.00
2018-09-03T21:36:04.332Z,88.10
2018-09-03T21:38:32.465Z,88.20
2018-09-03T21:41:00.601Z,88.20
2018-09-03T21:43:28.747Z,88.20
2018-09-03T21:45:56.961Z,88.20
2018-09-03T21:48:25.146Z,88.00
2018-09-03T21:50:53.236Z,88.00
2018-09-03T21:53:21.361Z,87.90
2018-09-03T21:55:49.502Z,87.80
2018-09-03T21:58:17.622Z,87.90
2018-09-03T22:00:45.781Z,87.90
2018-09-03T22:03:14.958Z,87.90
2018-09-03T22:05:43.101Z,88.00
2018-09-03T22:08:11.242Z,87.90
2018-09-03T22:10:39.365Z,88.00
2018-09-03T22:13:07.512Z,87.90
2018-09-03T22:15:36.024Z,88.10
2018-09-03T22:18:04.125Z,88.20
2018-09-03T22:20:32.321Z,88.30
2018-09-03T22:23:00.485Z,88.50
2018-09-03T22:25:28.616Z,88.60
2018-09-03T22:27:56.757Z,88.50
2018-09-03T22:30:24.877Z,88.50
2018-09-03T22:32:53.001Z,88.60
2018-09-03T22:35:21.145Z,88.70
2018-09-03T22:37:49.279Z,88.80
2018-09-03T22:40:17.485Z,88.90
2018-09-03T22:42:45.831Z,89.10
2018-09-03T22:45:14.177Z,89.10
2018-09-03T22:47:42.337Z,89.20
2018-09-03T22:50:10.477Z,89.30
2018-09-03T22:52:38.623Z,89.40
2018-09-03T22:55:07.394Z,89.10
2018-09-03T22:57:35.533Z,89.10
2018-09-03T23:00:04.189Z,89.30
2018-09-03T23:02:36.575Z,89.10
2018-09-03T23:05:04.973Z,89.10
2018-09-03T23:07:33.142Z,89.20
2018-09-03T23:10:01.272Z,89.40
2018-09-03T23:12:29.462Z,89.30
2018-09-03T23:14:57.593Z,89.40
2018-09-03T23:17:25.750Z,89.30
2018-09-03T23:19:53.885Z,89.40
2018-09-03T23:22:22.029Z,89.70
2018-09-03T23:24:50.159Z,89.70
2018-09-03T23:27:18.309Z,90.00
2018-09-03T23:29:46.507Z,90.20
2018-09-03T23:32:14.657Z,90.20
2018-09-03T23:34:42.822Z,90.20
2018-09-03T23:37:10.947Z,90.20
2018-09-03T23:39:39.065Z,90.20
2018-09-03T23:42:07.225Z,90.20
2018-09-03T23:44:35.386Z,90.20
2018-09-03T23:47:03.510Z,90.20
2018-09-03T23:49:31.646Z,90.20
2018-09-03T23:51:59.785Z,90.20
2018-09-03T23:54:30.158Z,90.20
2018-09-03T23:56:58.290Z,90.20
2018-09-03T23:59:26.438Z,90.20
